createdAt,value
2022-08-17T00:00:00.404Z,20.70
2022-08-17T00:02:27.462Z,20.80
2022-08-17T00:04:55.553Z,20.80
2022-08-17T00:07:22.551Z,20.80
2022-08-17T00:09:49.319Z,20.80
2022-08-17T00:12:42.083Z,20.70
2022-08-17T00:15:05.327Z,20.70
2022-08-17T00:17:33.002Z,20.70
2022-08-17T00:20:00.706Z,20.70
2022-08-17T00:22:31.864Z,20.70
2022-08-17T00:25:05.754Z,20.70
2022-08-17T00:27:33.607Z,20.80
2022-08-17T00:30:00.473Z,20.80
2022-08-17T00:33:14.246Z,20.80
2022-08-17T00:35:18.364Z,20.80
2022-08-17T00:37:45.361Z,20.70
2022-08-17T00:40:15.362Z,20.70
2022-08-17T00:42:43.822Z,20.70
2022-08-17T00:45:13.212Z,20.80
2022-08-17T00:47:40.227Z,20.80
2022-08-17T00:50:09.906Z,20.80
2022-08-17T00:52:43.364Z,20.80
2022-08-17T00:55:10.683Z,20.70
2022-08-17T00:57:44.753Z,20.80
2022-08-17T01:00:26.640Z,20.70
2022-08-17T01:02:58.986Z,20.70
2022-08-17T01:05:28.663Z,20.70
2022-08-17T01:07:56.259Z,20.50
2022-08-17T01:10:58.690Z,20.40
2022-08-17T01:13:36.750Z,20.30
2022-08-17T01:16:13.540Z,20.20
2022-08-17T01:18:40.394Z,20.20
2022-08-17T01:21:16.290Z,20.20
2022-08-17T01:23:43.264Z,20.20
2022-08-17T01:26:10.044Z,20.10
2022-08-17T01:28:53.694Z,20.00
2022-08-17T01:31:24.630Z,20.10
2022-08-17T01:33:51.637Z,20.10
2022-08-17T01:36:18.413Z,20.10
2022-08-17T01:38:45.193Z,20.10
2022-08-17T01:41:15.432Z,20.10
2022-08-17T01:43:57.334Z,20.00
2022-08-17T01:46:27.929Z,19.80
2022-08-17T01:48:56.314Z,19.70
2022-08-17T01:51:25.089Z,19.70
2022-08-17T01:53:54.817Z,19.60
2022-08-17T01:56:24.175Z,19.60
2022-08-17T01:58:51.120Z,19.60
2022-08-17T02:01:21.860Z,19.70
2022-08-17T02:03:59.061Z,19.60
2022-08-17T02:06:30.409Z,19.60
2022-08-17T02:09:03.020Z,19.50
2022-08-17T02:11:32.317Z,19.50
2022-08-17T02:14:02.396Z,19.50
2022-08-17T02:16:37.441Z,19.40
2022-08-17T02:19:08.005Z,19.50
2022-08-17T02:21:37.077Z,19.50
2022-08-17T02:24:07.367Z,19.50
2022-08-17T02:26:35.137Z,19.50
2022-08-17T02:29:02.074Z,19.50
2022-08-17T02:31:30.072Z,19.50
2022-08-17T02:34:03.585Z,19.40
2022-08-17T02:36:31.878Z,19.40
2022-08-17T02:38:58.701Z,19.40
2022-08-17T02:41:25.702Z,19.30
2022-08-17T02:43:53.574Z,19.30
2022-08-17T02:46:20.298Z,19.20
2022-08-17T02:48:47.396Z,19.10
2022-08-17T02:51:14.500Z,19.20
2022-08-17T02:53:41.212Z,19.20
2022-08-17T02:56:08.043Z,19.20
2022-08-17T02:58:36.084Z,19.20
2022-08-17T03:01:06.413Z,19.20
2022-08-17T03:03:33.746Z,19.20
2022-08-17T03:06:00.987Z,19.20
2022-08-17T03:08:27.783Z,19.30
2022-08-17T03:10:54.578Z,19.20
2022-08-17T03:13:21.623Z,19.20
2022-08-17T03:15:49.306Z,19.20
2022-08-17T03:18:24.866Z,19.30
2022-08-17T03:20:58.043Z,19.30
2022-08-17T03:23:25.782Z,19.30
2022-08-17T03:25:54.123Z,19.40
2022-08-17T03:28:22.215Z,19.40
2022-08-17T03:30:49.424Z,19.40
2022-08-17T03:33:16.967Z,19.40
2022-08-17T03:35:44.234Z,19.20
2022-08-17T03:38:15.053Z,19.20
2022-08-17T03:40:59.092Z,19.30
2022-08-17T03:43:28.835Z,19.20
2022-08-17T03:46:28.272Z,19.20
2022-08-17T03:49:20.773Z,19.30
2022-08-17T03:52:06.188Z,19.30
2022-08-17T03:54:51.722Z,19.30
2022-08-17T03:57:19.213Z,19.30
2022-08-17T03:59:46.383Z,19.30
2022-08-17T04:02:30.132Z,19.30
2022-08-17T04:04:57.497Z,19.20
2022-08-17T04:07:27.752Z,19.20
2022-08-17T04:09:55.071Z,19.20
2022-08-17T04:12:23.159Z,19.20
2022-08-17T04:14:53.187Z,19.10
2022-08-17T04:17:27.345Z,19.00
2022-08-17T04:19:55.227Z,18.90
2022-08-17T04:22:30.386Z,18.80
2022-08-17T04:24:58.777Z,18.80
2022-08-17T04:27:25.601Z,18.80
2022-08-17T04:29:55.055Z,18.90
2022-08-17T04:32:58.333Z,18.90
2022-08-17T04:35:10.148Z,18.90
2022-08-17T04:37:36.883Z,19.00
2022-08-17T04:40:26.517Z,19.00
2022-08-17T04:43:21.970Z,19.00
2022-08-17T04:45:56.708Z,19.20
2022-08-17T04:48:36.605Z,19.20
2022-08-17T04:51:10.660Z,19.30
2022-08-17T04:53:42.065Z,19.30
2022-08-17T04:56:11.532Z,19.20
2022-08-17T04:58:38.719Z,19.20
2022-08-17T05:01:07.081Z,19.30
2022-08-17T05:03:34.357Z,19.30
2022-08-17T05:06:01.115Z,19.40
2022-08-17T05:08:28.174Z,19.50
2022-08-17T05:10:55.025Z,19.50
2022-08-17T05:13:24.523Z,19.60
2022-08-17T05:15:55.369Z,19.70
2022-08-17T05:18:22.269Z,19.80
2022-08-17T05:20:52.381Z,19.80
2022-08-17T05:23:22.031Z,19.90
2022-08-17T05:25:52.041Z,20.00
2022-08-17T05:28:23.465Z,20.00
2022-08-17T05:30:56.256Z,20.10
2022-08-17T05:33:26.448Z,20.20
2022-08-17T05:35:55.587Z,20.20
2022-08-17T05:38:24.345Z,20.30
2022-08-17T05:40:51.775Z,20.40
2022-08-17T05:43:30.832Z,20.50
2022-08-17T05:46:03.239Z,20.50
2022-08-17T05:48:43.901Z,20.40
2022-08-17T05:51:46.483Z,20.50
2022-08-17T05:54:27.025Z,20.50
2022-08-17T05:57:18.260Z,20.70
2022-08-17T06:00:07.272Z,21.00
2022-08-17T06:03:00.452Z,21.20
2022-08-17T06:05:50.897Z,21.60
2022-08-17T06:08:30.404Z,22.00
2022-08-17T06:11:15.970Z,22.20
2022-08-17T06:14:14.536Z,22.60
2022-08-17T06:16:46.431Z,23.00
2022-08-17T06:19:20.900Z,23.40
2022-08-17T06:21:50.938Z,23.60
2022-08-17T06:24:23.918Z,23.70
2022-08-17T06:26:52.275Z,23.80
2022-08-17T06:29:41.696Z,23.70
2022-08-17T06:32:12.193Z,24.00
2022-08-17T06:34:41.290Z,24.10
2022-08-17T06:37:54.006Z,24.50
2022-08-17T06:40:38.072Z,25.00
2022-08-17T06:43:21.281Z,25.10
2022-08-17T06:45:57.482Z,24.90
2022-08-17T06:48:35.968Z,25.40
2022-08-17T06:51:23.000Z,25.80
2022-08-17T06:54:05.324Z,26.00
2022-08-17T06:56:59.652Z,26.20
2022-08-17T06:59:54.633Z,26.40
2022-08-17T07:02:52.566Z,26.70
2022-08-17T07:05:25.462Z,26.90
2022-08-17T07:08:12.572Z,27.10
2022-08-17T07:10:53.887Z,27.30
2022-08-17T07:13:25.806Z,27.60
2022-08-17T07:15:59.117Z,27.60
2022-08-17T07:18:33.154Z,27.70
2022-08-17T07:21:11.968Z,27.90
2022-08-17T07:24:01.347Z,28.20
2022-08-17T07:26:29.543Z,28.10
2022-08-17T07:28:57.042Z,28.20
2022-08-17T07:31:26.104Z,28.20
2022-08-17T07:34:03.483Z,28.00
2022-08-17T07:36:33.841Z,27.90
2022-08-17T07:39:02.274Z,27.80
2022-08-17T07:41:53.253Z,27.90
2022-08-17T07:44:21.895Z,28.30
2022-08-17T07:47:10.384Z,28.60
2022-08-17T07:49:39.938Z,28.90
2022-08-17T07:52:47.769Z,29.30
2022-08-17T07:54:58.544Z,29.60
2022-08-17T07:57:35.525Z,29.90
2022-08-17T08:00:02.277Z,30.20
2022-08-17T08:02:38.903Z,29.90
2022-08-17T08:05:30.798Z,30.00
2022-08-17T08:08:43.658Z,29.50
2022-08-17T08:11:15.414Z,29.30
2022-08-17T08:13:45.681Z,29.50
2022-08-17T08:16:27.401Z,29.80
2022-08-17T08:19:00.553Z,29.70
2022-08-17T08:21:33.501Z,30.10
2022-08-17T08:24:15.064Z,30.50
2022-08-17T08:27:07.177Z,30.90
2022-08-17T08:30:10.153Z,31.30
2022-08-17T08:33:04.183Z,31.80
2022-08-17T08:35:37.308Z,32.00
2022-08-17T08:38:26.815Z,32.10
2022-08-17T08:41:05.976Z,32.30
2022-08-17T08:43:53.081Z,32.70
2022-08-17T08:46:39.507Z,32.40
2022-08-17T08:50:04.419Z,32.70
2022-08-17T08:52:48.086Z,33.10
2022-08-17T08:55:34.461Z,33.40
2022-08-17T08:58:08.330Z,32.30
2022-08-17T09:00:58.296Z,32.40
2022-08-17T09:03:52.890Z,32.70
2022-08-17T09:06:45.000Z,33.00
2022-08-17T09:09:19.904Z,32.50
2022-08-17T09:12:10.709Z,32.70
2022-08-17T09:14:47.163Z,32.70
2022-08-17T09:17:19.484Z,32.60
2022-08-17T09:20:27.448Z,32.60
2022-08-17T09:23:15.043Z,32.60
2022-08-17T09:25:49.938Z,33.20
2022-08-17T09:28:27.710Z,33.50
2022-08-17T09:31:02.475Z,33.70
2022-08-17T09:33:33.963Z,33.80
2022-08-17T09:36:05.829Z,33.50
2022-08-17T09:38:44.125Z,33.50
2022-08-17T09:41:35.608Z,33.60
2022-08-17T09:44:26.452Z,33.20
2022-08-17T09:47:12.184Z,33.20
2022-08-17T09:49:46.970Z,33.50
2022-08-17T09:52:21.163Z,33.20
2022-08-17T09:54:50.867Z,32.80
2022-08-17T09:57:31.018Z,32.90
2022-08-17T10:00:17.054Z,32.20
2022-08-17T10:03:05.359Z,32.10
2022-08-17T10:05:56.836Z,32.30
2022-08-17T10:08:52.460Z,32.50
2022-08-17T10:12:05.970Z,32.30
2022-08-17T10:14:57.357Z,32.20
2022-08-17T10:17:29.862Z,31.50
2022-08-17T10:20:04.267Z,31.50
2022-08-17T10:23:04.605Z,31.50
2022-08-17T10:25:55.391Z,31.30
2022-08-17T10:28:29.718Z,31.60
2022-08-17T10:31:30.905Z,31.80
2022-08-17T10:34:13.320Z,31.90
2022-08-17T10:37:05.592Z,31.60
2022-08-17T10:39:52.139Z,31.60
2022-08-17T10:42:45.798Z,31.50
2022-08-17T10:45:29.499Z,31.30
2022-08-17T10:48:05.816Z,31.40
2022-08-17T10:50:42.657Z,31.50
2022-08-17T10:53:09.541Z,31.40
2022-08-17T10:55:36.521Z,31.50
2022-08-17T10:58:21.981Z,31.80
2022-08-17T11:00:51.941Z,31.60
2022-08-17T11:03:22.732Z,31.80
2022-08-17T11:06:30.778Z,32.00
2022-08-17T11:09:20.006Z,32.40
2022-08-17T11:11:55.820Z,32.70
2022-08-17T11:14:37.989Z,32.90
2022-08-17T11:17:53.937Z,32.90
2022-08-17T11:20:32.460Z,32.40
2022-08-17T11:23:18.389Z,32.40
2022-08-17T11:25:52.015Z,32.20
2022-08-17T11:28:36.017Z,32.20
2022-08-17T11:31:39.101Z,31.80
2022-08-17T11:34:21.333Z,31.60
2022-08-17T11:36:48.045Z,31.70
2022-08-17T11:39:14.815Z,31.60
2022-08-17T11:41:49.599Z,31.70
2022-08-17T11:45:00.647Z,31.60
2022-08-17T11:48:26.021Z,32.00
2022-08-17T11:51:24.789Z,32.10
2022-08-17T11:54:03.521Z,32.00
2022-08-17T11:56:43.656Z,32.00
2022-08-17T11:59:50.241Z,31.90
2022-08-17T12:02:20.070Z,31.80
2022-08-17T12:05:12.844Z,31.90
2022-08-17T12:07:49.234Z,32.00
2022-08-17T12:10:21.500Z,32.10
2022-08-17T12:12:52.242Z,31.90
2022-08-17T12:15:27.674Z,31.90
2022-08-17T12:17:56.659Z,31.90
2022-08-17T12:20:27.782Z,32.10
2022-08-17T12:23:18.455Z,32.20
2022-08-17T12:26:05.826Z,32.10
2022-08-17T12:28:36.639Z,32.00
2022-08-17T12:31:15.914Z,32.00
2022-08-17T12:33:47.471Z,31.90
2022-08-17T12:36:17.229Z,31.70
2022-08-17T12:39:12.797Z,31.70
2022-08-17T12:41:44.885Z,31.70
2022-08-17T12:44:12.261Z,31.90
2022-08-17T12:47:22.422Z,32.00
2022-08-17T12:49:52.819Z,32.30
2022-08-17T12:52:28.131Z,32.50
2022-08-17T12:55:06.954Z,32.50
2022-08-17T12:57:43.207Z,32.50
2022-08-17T13:00:17.768Z,32.60
2022-08-17T13:02:49.152Z,32.70
2022-08-17T13:05:23.655Z,32.80
2022-08-17T13:07:50.881Z,32.70
2022-08-17T13:10:21.447Z,32.70
2022-08-17T13:12:50.861Z,32.70
2022-08-17T13:15:23.598Z,32.60
2022-08-17T13:18:04.312Z,32.60
2022-08-17T13:20:31.858Z,32.40
2022-08-17T13:23:01.166Z,32.40
2022-08-17T13:25:29.123Z,32.50
2022-08-17T13:27:56.607Z,32.40
2022-08-17T13:30:28.356Z,32.40
2022-08-17T13:32:57.171Z,32.40
2022-08-17T13:35:50.395Z,32.40
2022-08-17T13:38:45.752Z,32.50
2022-08-17T13:41:34.580Z,32.50
2022-08-17T13:44:01.909Z,32.40
2022-08-17T13:46:33.155Z,32.30
2022-08-17T13:49:05.993Z,32.00
2022-08-17T13:51:41.505Z,31.90
2022-08-17T13:54:24.504Z,31.80
2022-08-17T13:56:51.234Z,31.80
2022-08-17T13:59:53.572Z,31.70
2022-08-17T14:02:20.532Z,31.60
2022-08-17T14:04:48.153Z,31.50
2022-08-17T14:07:16.138Z,31.40
2022-08-17T14:10:14.521Z,31.40
2022-08-17T14:12:44.440Z,31.40
2022-08-17T14:15:14.385Z,31.40
2022-08-17T14:17:41.429Z,31.40
2022-08-17T14:20:11.755Z,31.30
2022-08-17T14:22:43.229Z,31.30
2022-08-17T14:25:13.080Z,31.20
2022-08-17T14:27:52.234Z,31.10
2022-08-17T14:30:24.914Z,31.10
2022-08-17T14:32:53.238Z,31.10
2022-08-17T14:35:22.597Z,31.10
2022-08-17T14:37:50.678Z,31.10
2022-08-17T14:40:20.397Z,31.10
2022-08-17T14:42:47.514Z,31.10
2022-08-17T14:45:29.607Z,31.00
2022-08-17T14:48:01.048Z,31.00
2022-08-17T14:50:27.838Z,30.90
2022-08-17T14:52:58.076Z,30.80
2022-08-17T14:55:25.123Z,30.80
2022-08-17T14:57:52.009Z,30.70
2022-08-17T15:00:19.091Z,30.70
2022-08-17T15:02:58.875Z,30.70
2022-08-17T15:05:31.353Z,30.70
2022-08-17T15:07:59.276Z,30.70
2022-08-17T15:10:26.365Z,30.70
2022-08-17T15:12:53.176Z,30.70
2022-08-17T15:15:20.276Z,30.70
2022-08-17T15:17:47.125Z,30.80
2022-08-17T15:20:23.802Z,30.70
2022-08-17T15:22:55.185Z,30.70
2022-08-17T15:25:23.439Z,30.60
2022-08-17T15:27:50.526Z,30.70
2022-08-17T15:30:17.805Z,30.70
2022-08-17T15:32:51.470Z,30.70
2022-08-17T15:35:28.263Z,30.80
2022-08-17T15:38:11.584Z,30.80
2022-08-17T15:40:43.146Z,30.80
2022-08-17T15:43:14.235Z,30.90
2022-08-17T15:45:41.197Z,30.90
2022-08-17T15:48:09.007Z,31.00
2022-08-17T15:50:36.262Z,31.00
2022-08-17T15:53:04.892Z,31.10
2022-08-17T15:55:32.812Z,31.00
2022-08-17T15:58:00.090Z,31.00
2022-08-17T16:00:29.161Z,31.00
2022-08-17T16:03:45.219Z,31.10
2022-08-17T16:05:46.616Z,31.10
2022-08-17T16:08:20.159Z,31.10
2022-08-17T16:10:48.589Z,31.10
2022-08-17T16:13:17.642Z,31.10
2022-08-17T16:15:49.757Z,31.20
2022-08-17T16:18:31.192Z,31.10
2022-08-17T16:21:26.115Z,31.10
2022-08-17T16:24:01.711Z,31.10
2022-08-17T16:26:30.343Z,31.10
2022-08-17T16:28:59.203Z,31.20
2022-08-17T16:31:26.766Z,31.10
2022-08-17T16:34:15.816Z,31.10
2022-08-17T16:36:41.588Z,31.00
2022-08-17T16:39:21.350Z,31.00
2022-08-17T16:41:48.342Z,30.90
2022-08-17T16:44:16.946Z,30.90
2022-08-17T16:46:45.632Z,30.80
2022-08-17T16:49:24.477Z,30.70
2022-08-17T16:52:02.885Z,30.70
2022-08-17T16:54:29.693Z,30.30
2022-08-17T16:56:56.432Z,30.10
2022-08-17T16:59:30.376Z,29.80
2022-08-17T17:02:04.840Z,29.70
2022-08-17T17:04:34.988Z,29.50
2022-08-17T17:07:33.704Z,29.30
2022-08-17T17:10:14.196Z,29.20
2022-08-17T17:13:03.791Z,29.10
2022-08-17T17:15:46.026Z,29.00
2022-08-17T17:18:15.401Z,28.90
2022-08-17T17:20:54.607Z,28.80
2022-08-17T17:23:36.398Z,28.70
2022-08-17T17:26:08.612Z,28.60
2022-08-17T17:28:56.825Z,28.50
2022-08-17T17:31:32.035Z,28.50
2022-08-17T17:34:03.956Z,28.40
2022-08-17T17:36:43.015Z,28.30
2022-08-17T17:39:43.612Z,28.20
2022-08-17T17:42:15.168Z,28.10
2022-08-17T17:44:54.151Z,28.10
2022-08-17T17:47:21.431Z,28.10
2022-08-17T17:49:51.043Z,28.10
2022-08-17T17:52:32.691Z,28.00
2022-08-17T17:55:04.992Z,27.90
2022-08-17T17:58:02.801Z,27.80
2022-08-17T18:00:43.930Z,27.70
2022-08-17T18:03:32.447Z,27.60
2022-08-17T18:06:25.690Z,27.50
2022-08-17T18:09:18.083Z,27.60
2022-08-17T18:12:19.772Z,27.50
2022-08-17T18:15:21.765Z,27.40
2022-08-17T18:18:02.235Z,27.40
2022-08-17T18:20:37.134Z,27.40
2022-08-17T18:23:16.148Z,27.40
2022-08-17T18:25:52.942Z,27.30
2022-08-17T18:28:32.477Z,27.30
2022-08-17T18:31:19.812Z,27.30
2022-08-17T18:33:52.511Z,27.30
2022-08-17T18:36:32.807Z,27.20
2022-08-17T18:39:14.906Z,27.20
2022-08-17T18:41:44.223Z,27.10
2022-08-17T18:44:29.104Z,27.00
2022-08-17T18:47:23.657Z,27.00
2022-08-17T18:50:22.717Z,27.00
2022-08-17T18:52:50.668Z,26.90
2022-08-17T18:55:23.242Z,26.80
2022-08-17T18:58:01.838Z,26.80
2022-08-17T19:00:36.721Z,26.80
2022-08-17T19:03:18.418Z,26.80
2022-08-17T19:05:51.920Z,26.70
2022-08-17T19:08:18.718Z,26.70
2022-08-17T19:10:48.652Z,26.70
2022-08-17T19:13:23.841Z,26.70
2022-08-17T19:16:15.793Z,26.60
2022-08-17T19:19:11.281Z,26.60
2022-08-17T19:21:41.473Z,26.60
2022-08-17T19:24:11.280Z,26.50
2022-08-17T19:26:54.032Z,26.50
2022-08-17T19:29:41.232Z,26.50
2022-08-17T19:32:10.542Z,26.40
2022-08-17T19:34:39.114Z,26.40
2022-08-17T19:37:14.120Z,26.30
2022-08-17T19:39:50.802Z,26.20
2022-08-17T19:42:49.874Z,26.30
2022-08-17T19:45:56.015Z,26.30
2022-08-17T19:48:46.263Z,26.40
2022-08-17T19:51:30.546Z,26.40
2022-08-17T19:54:06.926Z,26.40
2022-08-17T19:56:39.842Z,26.40
2022-08-17T19:59:36.110Z,26.40
2022-08-17T20:02:23.976Z,26.40
2022-08-17T20:04:52.266Z,26.40
2022-08-17T20:07:25.760Z,26.40
2022-08-17T20:10:04.114Z,26.40
2022-08-17T20:12:35.561Z,26.40
2022-08-17T20:15:10.353Z,26.40
2022-08-17T20:17:46.012Z,26.40
2022-08-17T20:20:19.622Z,26.40
2022-08-17T20:23:04.843Z,26.40
2022-08-17T20:25:42.034Z,26.30
2022-08-17T20:29:02.638Z,26.20
2022-08-17T20:31:45.442Z,26.20
2022-08-17T20:34:33.504Z,26.20
2022-08-17T20:37:24.271Z,26.10
2022-08-17T20:39:52.491Z,26.10
2022-08-17T20:42:22.572Z,26.10
2022-08-17T20:44:57.985Z,26.10
2022-08-17T20:47:30.020Z,26.00
2022-08-17T20:50:05.465Z,26.00
2022-08-17T20:52:44.748Z,26.00
2022-08-17T20:55:51.963Z,26.00
2022-08-17T20:58:31.181Z,26.00
2022-08-17T21:00:58.866Z,25.90
2022-08-17T21:03:38.863Z,25.90
2022-08-17T21:06:18.531Z,25.90
2022-08-17T21:09:13.033Z,25.80
2022-08-17T21:11:58.213Z,25.60
2022-08-17T21:14:58.085Z,25.40
2022-08-17T21:17:56.602Z,25.00
2022-08-17T21:20:39.527Z,24.40
2022-08-17T21:23:26.517Z,24.00
2022-08-17T21:26:17.360Z,23.50
2022-08-17T21:29:00.820Z,22.90
2022-08-17T21:31:34.723Z,22.70
2022-08-17T21:34:16.891Z,22.50
2022-08-17T21:36:45.561Z,22.40
2022-08-17T21:39:21.366Z,22.30
2022-08-17T21:41:53.763Z,22.20
2022-08-17T21:44:34.968Z,22.10
2022-08-17T21:47:24.561Z,22.00
2022-08-17T21:49:56.458Z,22.00
2022-08-17T21:52:26.335Z,22.00
2022-08-17T21:55:00.290Z,21.90
2022-08-17T21:57:29.111Z,21.80
2022-08-17T22:00:01.543Z,21.70
2022-08-17T22:02:41.705Z,21.70
2022-08-17T22:05:11.472Z,21.60
2022-08-17T22:07:45.783Z,21.60
2022-08-17T22:10:41.804Z,21.50
2022-08-17T22:13:24.154Z,21.30
2022-08-17T22:16:29.362Z,21.30
2022-08-17T22:18:58.831Z,21.20
2022-08-17T22:21:26.404Z,21.10
2022-08-17T22:24:06.036Z,20.90
2022-08-17T22:27:12.925Z,20.90
2022-08-17T22:30:00.258Z,20.80
2022-08-17T22:32:39.962Z,20.50
2022-08-17T22:35:28.889Z,20.30
2022-08-17T22:37:57.191Z,20.20
2022-08-17T22:40:30.561Z,20.10
2022-08-17T22:43:00.131Z,20.00
2022-08-17T22:45:29.744Z,19.90
2022-08-17T22:47:58.718Z,19.90
2022-08-17T22:50:30.436Z,19.90
2022-08-17T22:53:22.523Z,19.90
2022-08-17T22:56:14.044Z,19.80
2022-08-17T22:59:10.498Z,19.80
2022-08-17T23:01:39.141Z,19.80
2022-08-17T23:04:09.509Z,19.90
2022-08-17T23:06:38.247Z,20.00
2022-08-17T23:09:07.261Z,19.90
2022-08-17T23:11:49.267Z,19.90
2022-08-17T23:14:19.866Z,19.80
2022-08-17T23:16:50.216Z,19.70
2022-08-17T23:19:20.453Z,19.60
2022-08-17T23:21:51.085Z,19.60
2022-08-17T23:24:28.266Z,19.60
2022-08-17T23:26:57.433Z,19.60
2022-08-17T23:29:25.089Z,19.60
2022-08-17T23:31:52.759Z,19.50
2022-08-17T23:34:20.046Z,19.60
2022-08-17T23:36:52.293Z,19.50
2022-08-17T23:39:27.402Z,19.50
2022-08-17T23:42:00.166Z,19.40
2022-08-17T23:44:28.736Z,19.40
2022-08-17T23:46:55.576Z,19.50
2022-08-17T23:49:23.681Z,19.50
2022-08-17T23:51:50.600Z,19.50
2022-08-17T23:54:24.400Z,19.50
2022-08-17T23:56:51.189Z,19.50
2022-08-17T23:59:20.760Z,19.60
